Wilbur, Kentucky
Current Conditions -  °F | °C
As of 3:15 PM on Sunday 23 Nov 2014 (Local Time) from KSJS Reporting Station
Light Rain Light Rain  
Wind Chill: 56°   Ceiling: 6500
Heat Index: 56°   Visibility: 10mi
Dew Point: 52°   Wind: 7mph
Humidity: 87%   Direction: 130°SE
Pressure: 29.8"   Gusts: NA
Location:  38.0348°N, 82.8583°W
Report Text: KSJS 232015Z AUTO 13006KT 10SM -RA BKN065 OVC085 13/11 A2980 RMK AO2 T01320110
Loading
Personal Weather Stations






























Interactive Weather Map New forecast layout! Learn more

10-Day Weather Forecast

Advertisements
Track Severe Weather on mobile